Time;durP1;ratioP1;P1;durP2;ratioP2;P2;SDS_P1;SDS_P2;PMS_P1;PMS_P2;Temp;Humidity;BMP_temperature;BMP_pressure;BME280_temperature;BME280_humidity;BME280_pressure;Samples;Min_cycle;Max_cycle;Signal;HPM_P1;HPM_P2
2022/06/25 00:00:21;;;;;;;0.00;0.00;;;;;;;;;;4927813;29;20051;-63
2022/06/25 00:02:46;;;;;;;0.00;0.00;;;;;;;;;;4926013;29;20158;-60
2022/06/25 00:05:29;;;;;;;0.00;0.00;;;;;;;;;;4926906;29;20107;-61
2022/06/25 00:07:58;;;;;;;0.00;0.00;;;;;;;;;;4923343;29;20287;-61
2022/06/25 00:10:24;;;;;;;0.10;0.10;;;;;;;;;;4925888;29;20020;-62
2022/06/25 00:12:49;;;;;;;0.00;0.00;;;;;;;;;;4923573;29;20028;-60
2022/06/25 00:15:14;;;;;;;0.00;0.00;;;;;;;;;;4928848;29;20038;-61
2022/06/25 00:17:40;;;;;;;0.00;0.00;;;;;;;;;;4920409;29;20032;-62
2022/06/25 00:20:06;;;;;;;6.13;1.98;;;;;;;;;;4929740;29;20044;-62
2022/06/25 00:22:31;;;;;;;0.00;0.00;;;;;;;;;;4925088;29;20028;-64
2022/06/25 00:24:56;;;;;;;0.00;0.00;;;;;;;;;;4929069;29;20032;-62
2022/06/25 00:27:21;;;;;;;0.00;0.00;;;;;;;;;;4926949;29;20032;-63
2022/06/25 00:29:46;;;;;;;0.00;0.00;;;;;;;;;;4923277;29;20055;-62
2022/06/25 00:32:12;;;;;;;0.00;0.00;;;;;;;;;;4930272;29;20020;-59
2022/06/25 00:34:40;;;;;;;0.00;0.00;;;;;;;;;;4934734;29;20027;-60
2022/06/25 00:37:06;;;;;;;0.00;0.00;;;;;;;;;;4934403;29;20028;-62
2022/06/25 00:39:34;;;;;;;0.00;0.00;;;;;;;;;;4934945;29;20393;-62
2022/06/25 00:42:00;;;;;;;0.00;0.00;;;;;;;;;;4929811;29;20028;-61
2022/06/25 00:44:27;;;;;;;0.10;0.10;;;;;;;;;;4931738;29;20405;-62
2022/06/25 00:46:52;;;;;;;0.05;0.05;;;;;;;;;;4931976;29;20023;-62
2022/06/25 00:49:18;;;;;;;1.60;1.60;;;;;;;;;;4929373;29;20027;-62
2022/06/25 00:51:52;;;;;;;0.00;0.00;;;;;;;;;;4930163;29;20083;-61
2022/06/25 00:54:22;;;;;;;0.00;0.00;;;;;;;;;;4927290;29;20024;-60
2022/06/25 00:56:47;;;;;;;;;;;;;;;;;;4931771;29;20042;-60
2022/06/25 00:59:13;;;;;;;0.40;0.40;;;;;;;;;;4931184;29;19919;-61
2022/06/25 01:01:38;;;;;;;0.00;0.00;;;;;;;;;;4929598;29;20872;-61
2022/06/25 01:04:30;;;;;;;0.00;0.00;;;;;;;;;;4927572;29;20023;-62
2022/06/25 01:06:55;;;;;;;0.10;0.10;;;;;;;;;;4928055;29;20560;-63
2022/06/25 01:09:20;;;;;;;0.00;0.00;;;;;;;;;;4930449;29;20035;-62
2022/06/25 01:11:46;;;;;;;0.00;0.00;;;;;;;;;;4931206;29;20867;-61
2022/06/25 01:14:11;;;;;;;0.00;0.00;;;;;;;;;;4935233;29;20027;-61
2022/06/25 01:16:37;;;;;;;0.00;0.00;;;;;;;;;;4934125;29;20115;-60
2022/06/25 01:19:11;;;;;;;0.00;0.00;;;;;;;;;;4931758;29;20075;-60
2022/06/25 01:21:37;;;;;;;0.00;0.00;;;;;;;;;;4930821;29;20299;-61
2022/06/25 01:24:03;;;;;;;0.00;0.00;;;;;;;;;;4930963;29;20058;-60
2022/06/25 01:26:28;;;;;;;0.00;0.00;;;;;;;;;;4932738;29;20028;-60
2022/06/25 01:28:54;;;;;;;0.00;0.00;;;;;;;;;;4931786;29;20062;-60
2022/06/25 01:31:19;;;;;;;0.00;0.00;;;;;;;;;;4932350;29;20012;-60
2022/06/25 01:33:44;;;;;;;0.00;0.00;;;;;;;;;;4927495;29;20405;-60
2022/06/25 01:36:10;;;;;;;0.00;0.00;;;;;;;;;;4925441;29;20388;-60
2022/06/25 01:38:35;;;;;;;0.00;0.00;;;;;;;;;;4930754;29;20024;-61
2022/06/25 01:41:00;;;;;;;0.00;0.00;;;;;;;;;;4925049;29;20024;-60
2022/06/25 01:43:25;;;;;;;0.20;0.20;;;;;;;;;;4930305;29;20056;-65
2022/06/25 01:45:51;;;;;;;0.00;0.00;;;;;;;;;;4922812;29;20110;-61
2022/06/25 01:48:16;;;;;;;0.00;0.00;;;;;;;;;;4931412;29;20020;-63
2022/06/25 01:50:42;;;;;;;0.00;0.00;;;;;;;;;;4928554;29;20028;-62
2022/06/25 01:53:07;;;;;;;0.00;0.00;;;;;;;;;;4926205;29;20082;-65
2022/06/25 01:55:32;;;;;;;0.00;0.00;;;;;;;;;;4942339;29;20028;-63
2022/06/25 01:57:58;;;;;;;0.00;0.00;;;;;;;;;;4932807;29;20047;-63
2022/06/25 02:00:25;;;;;;;0.10;0.10;;;;;;;;;;4932192;29;20024;-62
2022/06/25 02:02:52;;;;;;;0.00;0.00;;;;;;;;;;4939667;29;20107;-62
2022/06/25 02:05:56;;;;;;;0.00;0.00;;;;;;;;;;4937298;29;20445;-62
2022/06/25 02:08:03;;;;;;;0.00;0.00;;;;;;;;;;4931422;29;20043;-64
2022/06/25 02:10:28;;;;;;;0.00;0.00;;;;;;;;;;4933348;29;20023;-63
2022/06/25 02:12:54;;;;;;;0.00;0.00;;;;;;;;;;4934034;29;20023;-63
2022/06/25 02:15:19;;;;;;;0.00;0.00;;;;;;;;;;4927555;29;20024;-63
2022/06/25 02:17:44;;;;;;;0.00;0.00;;;;;;;;;;4928107;29;20023;-61
2022/06/25 02:20:09;;;;;;;0.00;0.00;;;;;;;;;;4930140;29;20055;-61
2022/06/25 02:22:36;;;;;;;0.00;0.00;;;;;;;;;;4928481;29;20300;-62
2022/06/25 02:25:01;;;;;;;0.00;0.00;;;;;;;;;;4931487;29;20078;-63
2022/06/25 02:27:26;;;;;;;0.00;0.00;;;;;;;;;;4928989;29;20120;-63
2022/06/25 02:29:51;;;;;;;0.00;0.00;;;;;;;;;;4930030;29;20051;-63
2022/06/25 02:32:17;;;;;;;0.00;0.00;;;;;;;;;;4928371;29;20028;-63
2022/06/25 02:34:42;;;;;;;0.00;0.00;;;;;;;;;;4927985;29;20059;-63
2022/06/25 02:37:07;;;;;;;0.00;0.00;;;;;;;;;;4927739;29;20028;-63
2022/06/25 02:39:32;;;;;;;0.00;0.00;;;;;;;;;;4931816;29;20446;-62
2022/06/25 02:41:57;;;;;;;0.00;0.00;;;;;;;;;;4931735;29;20030;-61
2022/06/25 02:44:23;;;;;;;0.00;0.00;;;;;;;;;;4928566;29;20031;-61
2022/06/25 02:46:48;;;;;;;0.00;0.00;;;;;;;;;;4926128;29;20030;-64
2022/06/25 02:49:13;;;;;;;0.00;0.00;;;;;;;;;;4924861;29;20034;-64
2022/06/25 02:51:38;;;;;;;0.00;0.00;;;;;;;;;;4927891;29;20020;-64
2022/06/25 02:54:04;;;;;;;0.00;0.00;;;;;;;;;;4928363;29;20015;-64
2022/06/25 02:59:13;;;;;;;0.00;0.00;;;;;;;;;;4928077;29;20119;-64
2022/06/25 03:01:38;;;;;;;0.00;0.00;;;;;;;;;;4923907;29;20107;-63
2022/06/25 03:04:03;;;;;;;0.00;0.00;;;;;;;;;;4943881;29;20074;-63
2022/06/25 03:06:29;;;;;;;0.00;0.00;;;;;;;;;;4935462;29;20030;-62
2022/06/25 03:08:54;;;;;;;0.00;0.00;;;;;;;;;;4932363;29;20020;-61
2022/06/25 03:11:20;;;;;;;0.00;0.00;;;;;;;;;;4925635;29;20473;-60
2022/06/25 03:13:45;;;;;;;0.00;0.00;;;;;;;;;;4929500;29;20088;-61
2022/06/25 03:16:11;;;;;;;0.00;0.00;;;;;;;;;;4931585;29;20028;-61
2022/06/25 03:18:36;;;;;;;0.15;0.15;;;;;;;;;;4925331;29;20043;-62
2022/06/25 03:21:02;;;;;;;0.80;0.80;;;;;;;;;;4928036;29;20113;-60
2022/06/25 03:23:28;;;;;;;0.00;0.00;;;;;;;;;;4932368;29;20483;-61
2022/06/25 03:25:53;;;;;;;0.00;0.00;;;;;;;;;;4927613;29;20024;-61
2022/06/25 03:28:19;;;;;;;0.00;0.00;;;;;;;;;;4928455;29;20020;-62
2022/06/25 03:30:44;;;;;;;0.00;0.00;;;;;;;;;;4920935;29;20102;-60
2022/06/25 03:33:09;;;;;;;0.00;0.00;;;;;;;;;;4923326;29;20020;-61
2022/06/25 03:35:35;;;;;;;0.00;0.00;;;;;;;;;;4929294;29;20039;-62
2022/06/25 03:38:00;;;;;;;0.00;0.00;;;;;;;;;;4930167;29;20039;-62
2022/06/25 03:40:25;;;;;;;0.00;0.00;;;;;;;;;;4925662;29;20024;-62
2022/06/25 03:42:51;;;;;;;0.00;0.00;;;;;;;;;;4928421;29;20024;-62
2022/06/25 03:45:16;;;;;;;0.00;0.00;;;;;;;;;;4924410;29;20027;-63
2022/06/25 03:47:41;;;;;;;0.00;0.00;;;;;;;;;;4923438;29;20044;-64
2022/06/25 03:50:07;;;;;;;0.00;0.00;;;;;;;;;;4928520;29;20078;-64
2022/06/25 03:52:32;;;;;;;0.00;0.00;;;;;;;;;;4929020;29;20019;-62
2022/06/25 03:54:58;;;;;;;0.00;0.00;;;;;;;;;;4929178;29;20532;-62
2022/06/25 03:57:24;;;;;;;0.00;0.00;;;;;;;;;;4931351;29;20043;-62
2022/06/25 03:59:50;;;;;;;0.00;0.00;;;;;;;;;;4929508;29;20027;-63
2022/06/25 04:02:15;;;;;;;0.00;0.00;;;;;;;;;;4931228;29;20386;-66
2022/06/25 04:04:40;;;;;;;0.00;0.00;;;;;;;;;;4931191;29;20059;-66
2022/06/25 04:07:05;;;;;;;0.00;0.00;;;;;;;;;;4930566;29;20019;-64
2022/06/25 04:09:31;;;;;;;0.00;0.00;;;;;;;;;;4930661;29;20513;-63
2022/06/25 04:11:56;;;;;;;0.00;0.00;;;;;;;;;;4931029;29;20096;-62
2022/06/25 04:14:21;;;;;;;0.00;0.00;;;;;;;;;;4930112;29;20039;-63
2022/06/25 04:16:47;;;;;;;0.00;0.00;;;;;;;;;;4931136;29;20389;-63
2022/06/25 04:19:12;;;;;;;0.05;0.05;;;;;;;;;;4930474;29;20044;-63
2022/06/25 04:21:37;;;;;;;0.00;0.00;;;;;;;;;;4928363;29;20020;-63
2022/06/25 04:24:02;;;;;;;0.00;0.00;;;;;;;;;;4931033;29;20119;-63
2022/06/25 04:26:28;;;;;;;0.00;0.00;;;;;;;;;;4928436;29;20311;-63
2022/06/25 04:29:05;;;;;;;0.00;0.00;;;;;;;;;;4926454;29;20074;-66
2022/06/25 04:31:33;;;;;;;0.00;0.00;;;;;;;;;;4930751;29;20107;-65
2022/06/25 04:33:58;;;;;;;0.00;0.00;;;;;;;;;;4928260;29;20027;-64
2022/06/25 04:36:24;;;;;;;0.00;0.00;;;;;;;;;;4924113;29;20043;-64
2022/06/25 04:38:50;;;;;;;0.00;0.00;;;;;;;;;;4924117;29;20040;-64
2022/06/25 04:41:15;;;;;;;0.00;0.00;;;;;;;;;;4929998;29;20031;-64
2022/06/25 04:43:40;;;;;;;0.45;0.17;;;;;;;;;;4923920;29;20083;-64
2022/06/25 04:46:05;;;;;;;0.00;0.00;;;;;;;;;;4925986;29;20028;-65
2022/06/25 04:48:30;;;;;;;0.00;0.00;;;;;;;;;;4926287;29;20065;-64
2022/06/25 04:50:56;;;;;;;0.00;0.00;;;;;;;;;;4924547;29;20044;-65
2022/06/25 04:53:21;;;;;;;0.00;0.00;;;;;;;;;;4929651;29;20126;-62
2022/06/25 04:55:46;;;;;;;0.00;0.00;;;;;;;;;;4929775;29;20047;-62
2022/06/25 04:58:12;;;;;;;0.00;0.00;;;;;;;;;;4923884;29;20032;-64
2022/06/25 05:00:37;;;;;;;0.00;0.00;;;;;;;;;;4927831;29;20474;-64
2022/06/25 05:03:02;;;;;;;0.00;0.00;;;;;;;;;;4929489;29;20211;-64
2022/06/25 05:05:28;;;;;;;0.00;0.00;;;;;;;;;;4929258;29;20031;-66
2022/06/25 05:07:53;;;;;;;0.00;0.00;;;;;;;;;;4932338;29;20031;-66
2022/06/25 05:10:18;;;;;;;0.00;0.00;;;;;;;;;;4933732;29;20042;-65
2022/06/25 05:15:27;;;;;;;0.00;0.00;;;;;;;;;;4932904;29;20034;-63
2022/06/25 05:17:52;;;;;;;0.00;0.00;;;;;;;;;;4932758;29;20023;-61
2022/06/25 05:20:17;;;;;;;0.00;0.00;;;;;;;;;;4933070;29;20138;-61
2022/06/25 05:22:43;;;;;;;0.00;0.00;;;;;;;;;;4932887;29;20023;-62
2022/06/25 05:25:08;;;;;;;0.00;0.00;;;;;;;;;;4933465;29;20118;-62
2022/06/25 05:27:33;;;;;;;0.00;0.00;;;;;;;;;;4933959;29;20039;-64
2022/06/25 05:29:59;;;;;;;0.00;0.00;;;;;;;;;;4932810;29;20016;-61
2022/06/25 05:32:24;;;;;;;0.00;0.00;;;;;;;;;;4930630;29;20047;-63
2022/06/25 05:34:49;;;;;;;0.00;0.00;;;;;;;;;;4932287;29;20062;-63
2022/06/25 05:37:15;;;;;;;0.00;0.00;;;;;;;;;;4934172;29;20059;-63
2022/06/25 05:39:40;;;;;;;0.00;0.00;;;;;;;;;;4933234;29;20032;-61
2022/06/25 05:42:05;;;;;;;0.00;0.00;;;;;;;;;;4933132;29;20031;-62
2022/06/25 05:44:31;;;;;;;0.00;0.00;;;;;;;;;;4931708;29;20627;-62
2022/06/25 05:46:56;;;;;;;0.00;0.00;;;;;;;;;;4932530;29;20528;-62
2022/06/25 05:49:21;;;;;;;0.00;0.00;;;;;;;;;;4932315;29;20438;-62
2022/06/25 05:51:46;;;;;;;0.00;0.00;;;;;;;;;;4932718;29;20698;-62
2022/06/25 05:54:12;;;;;;;0.00;0.00;;;;;;;;;;4932750;29;20477;-63
2022/06/25 05:56:37;;;;;;;1.45;1.35;;;;;;;;;;4932184;29;20474;-66
2022/06/25 05:59:02;;;;;;;0.00;0.00;;;;;;;;;;4933069;29;20027;-66
2022/06/25 06:01:27;;;;;;;0.00;0.00;;;;;;;;;;4934355;29;20107;-64
2022/06/25 06:03:53;;;;;;;0.00;0.00;;;;;;;;;;4913394;29;20114;-65
2022/06/25 06:06:18;;;;;;;0.47;0.47;;;;;;;;;;4931903;29;20119;-65
2022/06/25 06:08:43;;;;;;;0.00;0.00;;;;;;;;;;4931325;29;20024;-65
2022/06/25 06:11:08;;;;;;;0.03;0.03;;;;;;;;;;4925656;29;20481;-65
2022/06/25 06:13:33;;;;;;;0.10;0.10;;;;;;;;;;4931388;29;20267;-62
2022/06/25 06:15:59;;;;;;;0.70;0.70;;;;;;;;;;4932531;29;20034;-63
2022/06/25 06:18:24;;;;;;;1.95;1.08;;;;;;;;;;4933852;29;20170;-62
2022/06/25 06:20:49;;;;;;;0.05;0.05;;;;;;;;;;4929384;29;20098;-61
2022/06/25 06:23:14;;;;;;;0.00;0.00;;;;;;;;;;4925888;29;20040;-61
2022/06/25 06:25:40;;;;;;;0.17;0.17;;;;;;;;;;4931103;29;20114;-62
2022/06/25 06:28:05;;;;;;;0.00;0.00;;;;;;;;;;4933029;29;20032;-61
2022/06/25 06:30:30;;;;;;;0.00;0.00;;;;;;;;;;4931746;29;20024;-61
2022/06/25 06:32:55;;;;;;;0.25;0.25;;;;;;;;;;4927714;29;20028;-60
2022/06/25 06:35:21;;;;;;;0.00;0.00;;;;;;;;;;4930954;29;20410;-62
2022/06/25 06:37:46;;;;;;;0.00;0.00;;;;;;;;;;4929427;29;20461;-62
2022/06/25 06:40:11;;;;;;;0.00;0.00;;;;;;;;;;4930524;29;20868;-65
2022/06/25 06:42:37;;;;;;;0.32;0.32;;;;;;;;;;4932137;29;20067;-67
2022/06/25 06:45:02;;;;;;;0.00;0.00;;;;;;;;;;4926929;29;20052;-69
2022/06/25 06:47:28;;;;;;;0.00;0.00;;;;;;;;;;4927383;29;20027;-62
2022/06/25 06:49:53;;;;;;;3.10;1.85;;;;;;;;;;4926513;29;20393;-65
2022/06/25 06:52:19;;;;;;;0.00;0.00;;;;;;;;;;4931562;29;20433;-63
2022/06/25 06:54:44;;;;;;;0.00;0.00;;;;;;;;;;4928993;29;20055;-62
2022/06/25 06:57:09;;;;;;;0.25;0.25;;;;;;;;;;4927204;29;20170;-61
2022/06/25 06:59:35;;;;;;;0.10;0.10;;;;;;;;;;4926317;29;20486;-61
2022/06/25 07:02:00;;;;;;;0.55;0.50;;;;;;;;;;4930478;29;20581;-59
2022/06/25 07:04:25;;;;;;;0.00;0.00;;;;;;;;;;4929077;29;20030;-60
2022/06/25 07:06:50;;;;;;;0.05;0.05;;;;;;;;;;4927559;29;20099;-59
2022/06/25 07:09:16;;;;;;;0.00;0.00;;;;;;;;;;4930405;29;20138;-58
2022/06/25 07:11:41;;;;;;;0.00;0.00;;;;;;;;;;4927758;29;20103;-59
2022/06/25 07:14:06;;;;;;;0.00;0.00;;;;;;;;;;4927378;29;20035;-60
2022/06/25 07:16:33;;;;;;;0.73;0.73;;;;;;;;;;4929349;29;20450;-60
2022/06/25 07:18:58;;;;;;;0.70;0.63;;;;;;;;;;4926754;29;20047;-60
2022/06/25 07:21:24;;;;;;;0.00;0.00;;;;;;;;;;4925388;29;20083;-59
2022/06/25 07:23:50;;;;;;;0.28;0.28;;;;;;;;;;4927809;29;20035;-61
2022/06/25 07:26:15;;;;;;;0.00;0.00;;;;;;;;;;4914002;29;20063;-61
2022/06/25 07:28:40;;;;;;;0.00;0.00;;;;;;;;;;4926323;29;20020;-60
2022/06/25 07:31:06;;;;;;;0.00;0.00;;;;;;;;;;4927184;29;20079;-60
2022/06/25 07:33:32;;;;;;;0.00;0.00;;;;;;;;;;4929252;29;20019;-59
2022/06/25 07:35:58;;;;;;;0.00;0.00;;;;;;;;;;4921849;29;20544;-59
2022/06/25 07:38:23;;;;;;;0.00;0.00;;;;;;;;;;4927508;29;20384;-60
2022/06/25 07:40:49;;;;;;;0.13;0.13;;;;;;;;;;4927612;29;20055;-61
2022/06/25 07:43:15;;;;;;;0.00;0.00;;;;;;;;;;4924920;29;20032;-58
2022/06/25 07:45:40;;;;;;;0.00;0.00;;;;;;;;;;4922221;29;20450;-60
2022/06/25 07:48:05;;;;;;;0.00;0.00;;;;;;;;;;4923957;29;20020;-61
2022/06/25 07:53:14;;;;;;;0.00;0.00;;;;;;;;;;4926636;29;20569;-59
2022/06/25 07:55:40;;;;;;;0.00;0.00;;;;;;;;;;4929210;29;20099;-60
2022/06/25 07:58:05;;;;;;;0.00;0.00;;;;;;;;;;4927213;29;20050;-60
2022/06/25 08:00:30;;;;;;;0.00;0.00;;;;;;;;;;4923927;29;20091;-60
2022/06/25 08:02:55;;;;;;;0.00;0.00;;;;;;;;;;4923866;29;20057;-60
2022/06/25 08:05:21;;;;;;;0.00;0.00;;;;;;;;;;4926262;29;20098;-60
2022/06/25 08:07:46;;;;;;;0.00;0.00;;;;;;;;;;4927307;29;20830;-61
2022/06/25 08:10:12;;;;;;;0.00;0.00;;;;;;;;;;4926238;29;20270;-61
2022/06/25 08:12:37;;;;;;;0.00;0.00;;;;;;;;;;4923299;29;20466;-60
2022/06/25 08:15:03;;;;;;;0.00;0.00;;;;;;;;;;4924055;29;20043;-61
2022/06/25 08:17:29;;;;;;;0.00;0.00;;;;;;;;;;4921913;29;20497;-60
2022/06/25 08:19:54;;;;;;;0.00;0.00;;;;;;;;;;4923843;29;20622;-59
2022/06/25 08:22:19;;;;;;;0.03;0.03;;;;;;;;;;4921701;29;20032;-60
2022/06/25 08:24:44;;;;;;;0.03;0.03;;;;;;;;;;4924550;29;20657;-61
2022/06/25 08:27:10;;;;;;;0.00;0.00;;;;;;;;;;4923922;29;20057;-61
2022/06/25 08:29:35;;;;;;;0.57;0.57;;;;;;;;;;4925014;29;20055;-61
2022/06/25 08:32:00;;;;;;;0.00;0.00;;;;;;;;;;4922910;29;20031;-60
2022/06/25 08:34:26;;;;;;;0.00;0.00;;;;;;;;;;4923078;29;20036;-61
2022/06/25 08:36:51;;;;;;;0.00;0.00;;;;;;;;;;4926204;29;20102;-61
2022/06/25 08:39:16;;;;;;;0.00;0.00;;;;;;;;;;4923604;29;20498;-61
2022/06/25 08:41:42;;;;;;;0.00;0.00;;;;;;;;;;4929923;29;20276;-61
2022/06/25 08:44:07;;;;;;;0.00;0.00;;;;;;;;;;4927997;29;20516;-61
2022/06/25 08:46:33;;;;;;;0.43;0.43;;;;;;;;;;4929312;29;20031;-61
2022/06/25 08:49:00;;;;;;;0.00;0.00;;;;;;;;;;4931717;29;20028;-61
2022/06/25 08:51:28;;;;;;;0.00;0.00;;;;;;;;;;4925435;29;20401;-61
2022/06/25 08:53:56;;;;;;;0.15;0.15;;;;;;;;;;4929555;29;20023;-61
2022/06/25 08:56:22;;;;;;;0.30;0.30;;;;;;;;;;4930291;29;20028;-61
2022/06/25 08:58:47;;;;;;;0.00;0.00;;;;;;;;;;4926748;29;20024;-61
2022/06/25 09:01:12;;;;;;;0.00;0.00;;;;;;;;;;4924809;29;20063;-62
2022/06/25 09:03:39;;;;;;;0.00;0.00;;;;;;;;;;4923753;29;20063;-61
2022/06/25 09:06:11;;;;;;;0.00;0.00;;;;;;;;;;4928333;29;20505;-62
2022/06/25 09:08:36;;;;;;;0.00;0.00;;;;;;;;;;4926855;29;20050;-61
2022/06/25 09:11:01;;;;;;;0.00;0.00;;;;;;;;;;4925316;29;20030;-61
2022/06/25 09:13:26;;;;;;;1.50;1.50;;;;;;;;;;4925491;29;20288;-61
2022/06/25 09:15:52;;;;;;;0.00;0.00;;;;;;;;;;4928968;29;20338;-61
2022/06/25 09:18:18;;;;;;;0.40;0.40;;;;;;;;;;4925930;29;20051;-61
2022/06/25 09:20:59;;;;;;;0.00;0.00;;;;;;;;;;4926898;29;20070;-61
2022/06/25 09:23:28;;;;;;;0.00;0.00;;;;;;;;;;4927576;29;20031;-61
2022/06/25 09:26:00;;;;;;;0.00;0.00;;;;;;;;;;4927044;29;20343;-62
2022/06/25 09:28:30;;;;;;;0.00;0.00;;;;;;;;;;4926749;29;20036;-62
2022/06/25 09:30:55;;;;;;;0.20;0.20;;;;;;;;;;4926654;29;20119;-61
2022/06/25 09:33:20;;;;;;;0.00;0.00;;;;;;;;;;4924793;29;20196;-62
2022/06/25 09:35:49;;;;;;;0.00;0.00;;;;;;;;;;4927450;29;20043;-62
2022/06/25 09:38:16;;;;;;;0.00;0.00;;;;;;;;;;4931076;29;20362;-62
2022/06/25 09:40:51;;;;;;;0.00;0.00;;;;;;;;;;4924205;29;20170;-62
2022/06/25 09:43:37;;;;;;;0.00;0.00;;;;;;;;;;4919620;29;20028;-62
2022/06/25 09:46:03;;;;;;;0.00;0.00;;;;;;;;;;4925153;29;20532;-62
2022/06/25 09:48:30;;;;;;;0.00;0.00;;;;;;;;;;4927306;29;20484;-62
2022/06/25 09:51:33;;;;;;;0.00;0.00;;;;;;;;;;4927376;29;20028;-62
2022/06/25 09:53:59;;;;;;;0.00;0.00;;;;;;;;;;4874600;29;20435;-62
2022/06/25 09:56:25;;;;;;;0.00;0.00;;;;;;;;;;4917119;29;20035;-61
2022/06/25 09:58:54;;;;;;;0.00;0.00;;;;;;;;;;4929179;29;20508;-61
2022/06/25 10:01:20;;;;;;;0.00;0.00;;;;;;;;;;4931401;29;20027;-61
2022/06/25 10:03:46;;;;;;;0.00;0.00;;;;;;;;;;4929990;29;20215;-62
2022/06/25 10:06:21;;;;;;;0.55;0.55;;;;;;;;;;4930914;29;20110;-61
2022/06/25 10:08:48;;;;;;;0.00;0.00;;;;;;;;;;4929644;29;20437;-61
2022/06/25 10:11:13;;;;;;;0.00;0.00;;;;;;;;;;4931475;29;20029;-61
2022/06/25 10:13:40;;;;;;;0.00;0.00;;;;;;;;;;4931335;29;20130;-61
2022/06/25 10:16:05;;;;;;;0.00;0.00;;;;;;;;;;4930053;29;20032;-62
2022/06/25 10:18:31;;;;;;;0.00;0.00;;;;;;;;;;4932467;29;20055;-62
2022/06/25 10:20:57;;;;;;;0.00;0.00;;;;;;;;;;4932148;29;20119;-62
2022/06/25 10:23:22;;;;;;;0.00;0.00;;;;;;;;;;4932532;29;20110;-63
2022/06/25 10:25:48;;;;;;;0.00;0.00;;;;;;;;;;4932735;29;20031;-62
2022/06/25 10:28:14;;;;;;;0.00;0.00;;;;;;;;;;4931074;29;20111;-62
2022/06/25 10:30:46;;;;;;;0.00;0.00;;;;;;;;;;4932581;29;20106;-63
2022/06/25 10:33:13;;;;;;;0.00;0.00;;;;;;;;;;4925902;29;21414;-62
2022/06/25 10:35:39;;;;;;;0.00;0.00;;;;;;;;;;4930625;29;20101;-62
2022/06/25 10:38:09;;;;;;;0.00;0.00;;;;;;;;;;4930539;29;20038;-62
2022/06/25 10:40:53;;;;;;;0.00;0.00;;;;;;;;;;4930212;29;20028;-63
2022/06/25 10:43:38;;;;;;;0.00;0.00;;;;;;;;;;4928176;29;20024;-61
2022/06/25 10:46:22;;;;;;;0.00;0.00;;;;;;;;;;4928737;29;20040;-62
2022/06/25 10:48:50;;;;;;;0.00;0.00;;;;;;;;;;4933468;29;20559;-62
2022/06/25 10:51:26;;;;;;;0.00;0.00;;;;;;;;;;4929306;29;20027;-62
2022/06/25 10:53:51;;;;;;;0.00;0.00;;;;;;;;;;4928614;29;20063;-63
2022/06/25 10:56:17;;;;;;;0.00;0.00;;;;;;;;;;4931577;29;20031;-62
2022/06/25 10:58:43;;;;;;;0.00;0.00;;;;;;;;;;4931116;29;20031;-62
2022/06/25 11:01:18;;;;;;;0.10;0.10;;;;;;;;;;4931462;29;20087;-62
2022/06/25 11:03:43;;;;;;;0.00;0.00;;;;;;;;;;4928354;29;20059;-62
2022/06/25 11:06:17;;;;;;;0.00;0.00;;;;;;;;;;4924014;29;20071;-63
2022/06/25 11:08:43;;;;;;;0.00;0.00;;;;;;;;;;4927690;29;20031;-63
2022/06/25 11:11:09;;;;;;;0.00;0.00;;;;;;;;;;4927682;29;20670;-63
2022/06/25 11:13:34;;;;;;;0.00;0.00;;;;;;;;;;4929655;29;20103;-63
2022/06/25 11:16:11;;;;;;;0.27;0.27;;;;;;;;;;4930290;29;20032;-62
2022/06/25 11:18:44;;;;;;;0.10;0.10;;;;;;;;;;4930757;29;20296;-63
2022/06/25 11:21:09;;;;;;;0.00;0.00;;;;;;;;;;4929590;29;20095;-63
2022/06/25 11:23:34;;;;;;;0.10;0.10;;;;;;;;;;4929486;29;20020;-63
2022/06/25 11:28:52;;;;;;;0.00;0.00;;;;;;;;;;4931689;29;20094;-63
2022/06/25 11:31:17;;;;;;;0.43;0.43;;;;;;;;;;4929615;29;20020;-63
2022/06/25 11:33:43;;;;;;;0.00;0.00;;;;;;;;;;4930712;29;20031;-63
2022/06/25 11:36:09;;;;;;;0.00;0.00;;;;;;;;;;4930241;29;20283;-62
2022/06/25 11:38:34;;;;;;;0.63;0.63;;;;;;;;;;4929045;29;20438;-62
2022/06/25 11:41:00;;;;;;;0.00;0.00;;;;;;;;;;4929409;29;20030;-62
2022/06/25 11:43:26;;;;;;;0.00;0.00;;;;;;;;;;4930537;29;20283;-63
2022/06/25 11:46:01;;;;;;;0.03;0.03;;;;;;;;;;4930958;29;20490;-63
2022/06/25 11:48:27;;;;;;;0.00;0.00;;;;;;;;;;4929758;29;20027;-62
2022/06/25 11:50:55;;;;;;;0.10;0.10;;;;;;;;;;4929424;29;20091;-62
2022/06/25 11:53:21;;;;;;;0.00;0.00;;;;;;;;;;4930146;29;20024;-63
2022/06/25 11:55:59;;;;;;;0.00;0.00;;;;;;;;;;4927532;29;20028;-62
2022/06/25 11:58:26;;;;;;;0.00;0.00;;;;;;;;;;4924714;29;20497;-63
2022/06/25 12:00:54;;;;;;;0.35;0.35;;;;;;;;;;4925954;29;20264;-62
2022/06/25 12:03:22;;;;;;;0.00;0.00;;;;;;;;;;4926149;29;20405;-62
2022/06/25 12:05:47;;;;;;;0.13;0.13;;;;;;;;;;4924533;29;20078;-62
2022/06/25 12:08:14;;;;;;;1.08;1.08;;;;;;;;;;4926057;29;20032;-64
2022/06/25 12:10:42;;;;;;;0.00;0.00;;;;;;;;;;4927089;29;20107;-64
2022/06/25 12:13:07;;;;;;;0.00;0.00;;;;;;;;;;4928228;29;20102;-65
2022/06/25 12:15:32;;;;;;;0.00;0.00;;;;;;;;;;4933723;29;20127;-65
2022/06/25 12:18:04;;;;;;;0.13;0.13;;;;;;;;;;4933954;29;20106;-65
2022/06/25 12:20:29;;;;;;;3.70;0.70;;;;;;;;;;4934130;29;20039;-65
2022/06/25 12:22:56;;;;;;;0.10;0.10;;;;;;;;;;4934773;29;20090;-65
2022/06/25 12:25:25;;;;;;;0.00;0.00;;;;;;;;;;4933476;29;20024;-65
2022/06/25 12:27:50;;;;;;;;;;;;;;;;;;4933545;29;20035;-65
2022/06/25 12:30:23;;;;;;;1.85;1.75;;;;;;;;;;4934366;29;19911;-65
2022/06/25 12:32:49;;;;;;;0.00;0.00;;;;;;;;;;4933834;29;20028;-64
2022/06/25 12:35:16;;;;;;;0.00;0.00;;;;;;;;;;4933859;29;20039;-64
2022/06/25 12:37:42;;;;;;;0.00;0.00;;;;;;;;;;4932968;29;20032;-65
2022/06/25 12:40:07;;;;;;;0.47;0.47;;;;;;;;;;4932731;29;20684;-64
2022/06/25 12:42:33;;;;;;;0.20;0.20;;;;;;;;;;4931309;29;20035;-64
2022/06/25 12:44:58;;;;;;;0.10;0.10;;;;;;;;;;4929693;29;20164;-64
2022/06/25 12:47:24;;;;;;;0.63;0.40;;;;;;;;;;4933705;29;20746;-65
2022/06/25 12:49:51;;;;;;;0.55;0.55;;;;;;;;;;4927305;29;20024;-64
2022/06/25 12:52:19;;;;;;;0.00;0.00;;;;;;;;;;4927199;29;20369;-64
2022/06/25 12:54:48;;;;;;;0.45;0.45;;;;;;;;;;4931510;29;20023;-64
2022/06/25 12:57:18;;;;;;;0.00;0.00;;;;;;;;;;4927648;29;20155;-64
2022/06/25 12:59:46;;;;;;;0.20;0.20;;;;;;;;;;4926640;29;20032;-64
2022/06/25 13:02:11;;;;;;;0.00;0.00;;;;;;;;;;4928092;29;20630;-64
2022/06/25 13:04:37;;;;;;;0.00;0.00;;;;;;;;;;4930109;29;20047;-63
2022/06/25 13:07:02;;;;;;;0.00;0.00;;;;;;;;;;4926717;29;20023;-63
2022/06/25 13:09:27;;;;;;;0.00;0.00;;;;;;;;;;4925358;29;20512;-64
2022/06/25 13:11:52;;;;;;;0.80;0.80;;;;;;;;;;4932420;29;20476;-62
2022/06/25 13:14:18;;;;;;;0.00;0.00;;;;;;;;;;4928850;29;20347;-64
2022/06/25 13:16:43;;;;;;;0.00;0.00;;;;;;;;;;4927120;29;20023;-62
2022/06/25 13:19:09;;;;;;;0.65;0.65;;;;;;;;;;4926510;29;20147;-62
2022/06/25 13:21:34;;;;;;;0.00;0.00;;;;;;;;;;4931411;29;20067;-63
2022/06/25 13:23:59;;;;;;;0.00;0.00;;;;;;;;;;4926159;29;20043;-64
2022/06/25 13:26:26;;;;;;;0.00;0.00;;;;;;;;;;4924681;29;20031;-63
2022/06/25 13:28:51;;;;;;;0.00;0.00;;;;;;;;;;4929816;29;20343;-64
2022/06/25 13:31:17;;;;;;;0.00;0.00;;;;;;;;;;4929289;29;20183;-63
2022/06/25 13:33:42;;;;;;;0.10;0.10;;;;;;;;;;4933176;29;20034;-63
2022/06/25 13:36:08;;;;;;;0.00;0.00;;;;;;;;;;4929700;29;20044;-63
2022/06/25 13:38:33;;;;;;;3.88;0.17;;;;;;;;;;4926676;29;20039;-64
2022/06/25 13:40:58;;;;;;;0.08;0.08;;;;;;;;;;4928923;29;20030;-63
2022/06/25 13:43:23;;;;;;;0.00;0.00;;;;;;;;;;4930012;29;20094;-63
2022/06/25 13:45:49;;;;;;;0.35;0.25;;;;;;;;;;4929350;29;20055;-61
2022/06/25 13:48:14;;;;;;;0.00;0.00;;;;;;;;;;4924017;29;20397;-60
2022/06/25 13:50:39;;;;;;;0.00;0.00;;;;;;;;;;4928949;29;20036;-61
2022/06/25 13:53:04;;;;;;;0.00;0.00;;;;;;;;;;4928470;29;20020;-63
2022/06/25 13:55:30;;;;;;;0.00;0.00;;;;;;;;;;4926795;29;20041;-63
2022/06/25 13:57:55;;;;;;;0.10;0.10;;;;;;;;;;4925129;29;20032;-63
2022/06/25 14:00:20;;;;;;;0.00;0.00;;;;;;;;;;4930135;29;20032;-63
2022/06/25 14:02:45;;;;;;;0.00;0.00;;;;;;;;;;4927474;29;20024;-63
2022/06/25 14:05:11;;;;;;;0.08;0.08;;;;;;;;;;4925238;29;20071;-62
2022/06/25 14:07:36;;;;;;;0.00;0.00;;;;;;;;;;4927848;29;20042;-63
2022/06/25 14:10:02;;;;;;;2.20;1.02;;;;;;;;;;4929337;29;20019;-62
2022/06/25 14:12:27;;;;;;;0.20;0.20;;;;;;;;;;4926806;29;20617;-61
2022/06/25 14:14:53;;;;;;;0.08;0.08;;;;;;;;;;4924241;29;20059;-66
2022/06/25 14:17:21;;;;;;;0.10;0.10;;;;;;;;;;4929499;29;20039;-67
2022/06/25 14:19:47;;;;;;;0.00;0.00;;;;;;;;;;4926245;29;20067;-66
2022/06/25 14:22:13;;;;;;;0.65;0.05;;;;;;;;;;4926449;29;20078;-67
2022/06/25 14:27:21;;;;;;;0.00;0.00;;;;;;;;;;4928784;29;20087;-66
2022/06/25 14:29:47;;;;;;;0.00;0.00;;;;;;;;;;4926439;29;20090;-66
2022/06/25 14:32:12;;;;;;;0.00;0.00;;;;;;;;;;4922793;29;20189;-63
2022/06/25 14:34:37;;;;;;;0.00;0.00;;;;;;;;;;4931025;29;20873;-63
2022/06/25 14:42:30;;;;;;;0.43;0.43;;;;;;;;;;4928282;29;20508;-60
2022/06/25 14:44:56;;;;;;;0.73;0.73;;;;;;;;;;4925564;29;20040;-63
2022/06/25 14:47:21;;;;;;;0.00;0.00;;;;;;;;;;4926979;29;20023;-63
2022/06/25 14:49:46;;;;;;;0.03;0.03;;;;;;;;;;4927589;29;20038;-63
2022/06/25 14:52:11;;;;;;;0.00;0.00;;;;;;;;;;4923128;29;20414;-63
2022/06/25 14:54:37;;;;;;;10.02;8.57;;;;;;;;;;4928067;29;20030;-63
2022/06/25 14:57:03;;;;;;;0.00;0.00;;;;;;;;;;4926936;29;20027;-63